sensor_id;sensor_type;location;lat;lon;timestamp;pressure;altitude;pressure_sealevel;temperature;humidity
39681;BME280;26327;42.550;23.120;2023-03-20T08:48:24;93049.34;;;22.72;23.59
39681;BME280;26327;42.550;23.120;2023-03-20T08:50:50;92980.47;;;22.99;23.15
39681;BME280;26327;42.550;23.120;2023-03-20T08:53:16;93044.84;;;24.53;21.02
39681;BME280;26327;42.550;23.120;2023-03-20T08:55:46;92996.28;;;24.72;21.31
39681;BME280;26327;42.550;23.120;2023-03-20T08:58:13;92992.31;;;24.80;20.68
39681;BME280;26327;42.550;23.120;2023-03-20T09:00:38;93042.50;;;26.49;19.58
39681;BME280;26327;42.550;23.120;2023-03-20T09:03:03;93043.16;;;25.95;19.56
39681;BME280;26327;42.550;23.120;2023-03-20T09:05:29;93015.25;;;25.62;19.60
39681;BME280;26327;42.550;23.120;2023-03-20T09:07:54;93002.69;;;24.92;20.56
39681;BME280;26327;42.550;23.120;2023-03-20T09:10:19;93040.09;;;24.60;21.74
39681;BME280;26327;42.550;23.120;2023-03-20T09:12:45;92983.56;;;24.90;19.86
39681;BME280;26327;42.550;23.120;2023-03-20T09:15:10;92932.22;;;26.84;18.30
39681;BME280;26327;42.550;23.120;2023-03-20T09:17:36;92963.16;;;28.54;16.63
39681;BME280;26327;42.550;23.120;2023-03-20T09:20:01;93028.41;;;28.96;15.80
39681;BME280;26327;42.550;23.120;2023-03-20T09:22:28;92920.22;;;29.53;14.92
39681;BME280;26327;42.550;23.120;2023-03-20T09:24:53;93006.94;;;28.58;16.67
39681;BME280;26327;42.550;23.120;2023-03-20T09:27:18;92980.19;;;29.85;15.62
39681;BME280;26327;42.550;23.120;2023-03-20T09:29:44;92991.44;;;26.17;18.36
39681;BME280;26327;42.550;23.120;2023-03-20T09:32:12;92913.66;;;24.79;19.39
39681;BME280;26327;42.550;23.120;2023-03-20T09:34:37;92904.75;;;27.52;16.65
39681;BME280;26327;42.550;23.120;2023-03-20T09:37:03;92950.34;;;28.32;15.82
39681;BME280;26327;42.550;23.120;2023-03-20T09:39:29;93007.41;;;28.17;16.69
39681;BME280;26327;42.550;23.120;2023-03-20T09:41:56;92996.53;;;30.16;15.53
39681;BME280;26327;42.550;23.120;2023-03-20T09:47:39;92997.03;;;29.01;15.64
39681;BME280;26327;42.550;23.120;2023-03-20T09:50:25;92987.28;;;29.62;15.01
39681;BME280;26327;42.550;23.120;2023-03-20T09:55:35;92970.53;;;25.59;17.08
39681;BME280;26327;42.550;23.120;2023-03-20T09:58:14;92933.19;;;28.38;15.71
39681;BME280;26327;42.550;23.120;2023-03-20T10:00:44;92965.00;;;29.80;15.01
39681;BME280;26327;42.550;23.120;2023-03-20T10:03:18;92967.50;;;29.90;14.60
39681;BME280;26327;42.550;23.120;2023-03-20T10:05:47;92969.00;;;29.50;14.84
39681;BME280;26327;42.550;23.120;2023-03-20T10:08:15;92899.91;;;27.54;16.01
39681;BME280;26327;42.550;23.120;2023-03-20T10:10:49;92963.34;;;25.65;17.12
39681;BME280;26327;42.550;23.120;2023-03-20T10:18:33;92954.34;;;25.35;17.37
39681;BME280;26327;42.550;23.120;2023-03-20T10:21:21;92882.00;;;22.80;20.27
39681;BME280;26327;42.550;23.120;2023-03-20T10:24:03;92945.22;;;27.59;17.02
39681;BME280;26327;42.550;23.120;2023-03-20T10:26:33;92885.50;;;25.19;18.94
39681;BME280;26327;42.550;23.120;2023-03-20T10:29:00;92890.97;;;27.69;17.07
39681;BME280;26327;42.550;23.120;2023-03-20T10:31:42;92953.38;;;29.38;15.34
39681;BME280;26327;42.550;23.120;2023-03-20T10:34:43;92939.72;;;30.55;14.49
39681;BME280;26327;42.550;23.120;2023-03-20T10:39:53;92900.97;;;28.06;15.75
39681;BME280;26327;42.550;23.120;2023-03-20T10:42:28;92928.50;;;31.47;14.37
39681;BME280;26327;42.550;23.120;2023-03-20T10:45:07;92886.25;;;33.44;12.43
39681;BME280;26327;42.550;23.120;2023-03-20T10:47:39;92889.00;;;34.59;12.33
39681;BME280;26327;42.550;23.120;2023-03-20T10:50:13;92916.78;;;35.22;12.18
39681;BME280;26327;42.550;23.120;2023-03-20T10:52:41;92912.84;;;29.12;15.04
39681;BME280;26327;42.550;23.120;2023-03-20T10:55:10;92913.22;;;33.27;13.01
39681;BME280;26327;42.550;23.120;2023-03-20T10:57:43;92906.81;;;35.01;12.38
39681;BME280;26327;42.550;23.120;2023-03-20T11:00:21;92855.16;;;34.61;13.20
39681;BME280;26327;42.550;23.120;2023-03-20T11:02:47;92859.41;;;35.25;12.07
39681;BME280;26327;42.550;23.120;2023-03-20T11:05:29;92912.94;;;29.40;14.62
39681;BME280;26327;42.550;23.120;2023-03-20T11:08:14;92851.53;;;29.30;15.50
39681;BME280;26327;42.550;23.120;2023-03-20T11:10:42;92853.97;;;32.41;13.81
39681;BME280;26327;42.550;23.120;2023-03-20T11:13:22;92842.53;;;33.94;12.47
39681;BME280;26327;42.550;23.120;2023-03-20T11:15:51;92837.84;;;34.41;12.40
39681;BME280;26327;42.550;23.120;2023-03-20T11:18:17;92876.13;;;34.35;12.42
39681;BME280;26327;42.550;23.120;2023-03-20T11:20:50;92884.22;;;34.85;12.76
39681;BME280;26327;42.550;23.120;2023-03-20T11:23:28;92811.19;;;35.36;12.08
39681;BME280;26327;42.550;23.120;2023-03-20T11:26:12;92869.00;;;35.80;11.63
39681;BME280;26327;42.550;23.120;2023-03-20T11:28:50;92878.19;;;35.21;11.92
39681;BME280;26327;42.550;23.120;2023-03-20T11:31:29;92823.13;;;34.30;11.83
39681;BME280;26327;42.550;23.120;2023-03-20T11:36:44;92803.56;;;35.17;11.72
39681;BME280;26327;42.550;23.120;2023-03-20T11:39:13;92857.25;;;36.45;11.91
39681;BME280;26327;42.550;23.120;2023-03-20T11:41:59;92820.22;;;36.62;11.71
39681;BME280;26327;42.550;23.120;2023-03-20T11:44:33;92812.72;;;36.18;12.00
39681;BME280;26327;42.550;23.120;2023-03-20T11:47:21;92853.88;;;36.12;11.45
39681;BME280;26327;42.550;23.120;2023-03-20T11:50:01;92830.41;;;36.40;11.58
39681;BME280;26327;42.550;23.120;2023-03-20T11:52:35;92792.16;;;34.78;12.28
39681;BME280;26327;42.550;23.120;2023-03-20T11:55:07;92790.97;;;35.78;11.07
39681;BME280;26327;42.550;23.120;2023-03-20T11:57:47;92844.97;;;36.11;10.62
39681;BME280;26327;42.550;23.120;2023-03-20T12:00:19;92827.78;;;33.92;11.54
39681;BME280;26327;42.550;23.120;2023-03-20T12:02:45;92774.00;;;26.70;14.68
39681;BME280;26327;42.550;23.120;2023-03-20T12:05:37;92829.59;;;28.30;15.35
39681;BME280;26327;42.550;23.120;2023-03-20T12:08:13;92818.84;;;31.72;13.52
39681;BME280;26327;42.550;23.120;2023-03-20T12:10:47;92752.38;;;32.72;11.80
39681;BME280;26327;42.550;23.120;2023-03-20T12:13:24;92805.00;;;33.42;11.72
39681;BME280;26327;42.550;23.120;2023-03-20T12:16:00;92748.88;;;31.94;12.24
39681;BME280;26327;42.550;23.120;2023-03-20T12:18:33;92817.72;;;33.71;11.89
39681;BME280;26327;42.550;23.120;2023-03-20T12:23:42;92819.09;;;35.53;10.28
39681;BME280;26327;42.550;23.120;2023-03-20T12:28:52;92804.84;;;34.78;11.57
39681;BME280;26327;42.550;23.120;2023-03-20T12:34:00;92801.13;;;29.37;14.49
39681;BME280;26327;42.550;23.120;2023-03-20T12:36:35;92694.03;;;28.17;14.69
39681;BME280;26327;42.550;23.120;2023-03-20T12:39:04;92762.94;;;32.00;12.28
39681;BME280;26327;42.550;23.120;2023-03-20T12:41:40;92780.81;;;33.08;12.38
39681;BME280;26327;42.550;23.120;2023-03-20T12:50:03;92790.06;;;32.81;12.67
39681;BME280;26327;42.550;23.120;2023-03-20T12:55:30;92771.16;;;33.15;12.38
39681;BME280;26327;42.550;23.120;2023-03-20T13:07:05;92768.00;;;32.01;12.60
39681;BME280;26327;42.550;23.120;2023-03-20T13:12:14;92754.56;;;31.13;14.39
39681;BME280;26327;42.550;23.120;2023-03-20T13:15:02;92752.97;;;30.59;14.21
39681;BME280;26327;42.550;23.120;2023-03-20T13:20:27;92739.28;;;26.12;16.88
39681;BME280;26327;42.550;23.120;2023-03-20T13:36:12;92732.81;;;25.30;17.03
39681;BME280;26327;42.550;23.120;2023-03-20T13:39:02;92727.03;;;25.18;16.70
39681;BME280;26327;42.550;23.120;2023-03-20T13:41:32;92728.94;;;24.92;18.45
39681;BME280;26327;42.550;23.120;2023-03-20T13:44:01;92733.56;;;24.30;17.45
39681;BME280;26327;42.550;23.120;2023-03-20T13:46:45;92598.69;;;23.41;16.89
39681;BME280;26327;42.550;23.120;2023-03-20T13:49:23;92737.28;;;24.34;17.09
39681;BME280;26327;42.550;23.120;2023-03-20T13:52:14;92658.41;;;24.35;16.97
39681;BME280;26327;42.550;23.120;2023-03-20T13:58:09;92708.28;;;24.58;16.31
39681;BME280;26327;42.550;23.120;2023-03-20T14:03:17;92712.78;;;23.61;17.66
39681;BME280;26327;42.550;23.120;2023-03-20T14:05:45;92684.41;;;23.62;18.41
39681;BME280;26327;42.550;23.120;2023-03-20T14:13:31;92691.75;;;23.34;19.26
39681;BME280;26327;42.550;23.120;2023-03-20T14:16:00;92630.69;;;22.99;18.15
39681;BME280;26327;42.550;23.120;2023-03-20T14:18:28;92632.28;;;22.95;18.25
39681;BME280;26327;42.550;23.120;2023-03-20T14:21:11;92680.34;;;23.23;18.49
39681;BME280;26327;42.550;23.120;2023-03-20T14:23:42;92694.41;;;23.39;17.21
39681;BME280;26327;42.550;23.120;2023-03-20T14:31:37;92621.44;;;21.64;22.27
39681;BME280;26327;42.550;23.120;2023-03-20T14:36:50;92695.66;;;22.17;18.66
39681;BME280;26327;42.550;23.120;2023-03-20T14:39:51;92687.00;;;22.26;18.57
39681;BME280;26327;42.550;23.120;2023-03-20T14:50:26;92679.47;;;20.79;20.72
39681;BME280;26327;42.550;23.120;2023-03-20T14:55:27;92688.13;;;20.52;21.93
39681;BME280;26327;42.550;23.120;2023-03-20T14:57:55;92626.50;;;20.63;22.10
39681;BME280;26327;42.550;23.120;2023-03-20T15:00:24;92673.31;;;21.17;21.59
39681;BME280;26327;42.550;23.120;2023-03-20T15:03:05;92625.66;;;20.58;21.17
39681;BME280;26327;42.550;23.120;2023-03-20T15:05:34;92658.00;;;20.92;21.17
39681;BME280;26327;42.550;23.120;2023-03-20T15:08:21;92680.19;;;21.18;21.08
39681;BME280;26327;42.550;23.120;2023-03-20T15:10:51;92654.47;;;21.08;21.54
39681;BME280;26327;42.550;23.120;2023-03-20T15:13:17;92590.63;;;20.67;21.90
39681;BME280;26327;42.550;23.120;2023-03-20T15:15:57;92580.00;;;20.84;23.14
39681;BME280;26327;42.550;23.120;2023-03-20T15:18:25;92618.03;;;20.83;22.54
39681;BME280;26327;42.550;23.120;2023-03-20T15:20:50;92677.88;;;21.48;21.14
39681;BME280;26327;42.550;23.120;2023-03-20T15:23:16;92610.81;;;21.00;21.17
39681;BME280;26327;42.550;23.120;2023-03-20T15:25:46;92599.59;;;20.88;21.23
39681;BME280;26327;42.550;23.120;2023-03-20T15:28:18;92607.59;;;20.71;22.05
39681;BME280;26327;42.550;23.120;2023-03-20T15:30:45;92611.75;;;20.67;22.71
39681;BME280;26327;42.550;23.120;2023-03-20T15:33:19;92655.09;;;20.93;22.99
39681;BME280;26327;42.550;23.120;2023-03-20T15:35:48;92670.94;;;20.93;22.29
39681;BME280;26327;42.550;23.120;2023-03-20T15:38:15;92661.47;;;20.75;22.52
39681;BME280;26327;42.550;23.120;2023-03-20T15:40:42;92656.22;;;20.75;22.86
39681;BME280;26327;42.550;23.120;2023-03-20T15:43:23;92662.72;;;20.46;24.57
39681;BME280;26327;42.550;23.120;2023-03-20T15:45:50;92600.91;;;20.42;23.84
39681;BME280;26327;42.550;23.120;2023-03-20T15:48:20;92604.97;;;20.50;23.98
39681;BME280;26327;42.550;23.120;2023-03-20T15:50:50;92590.13;;;20.27;23.87
39681;BME280;26327;42.550;23.120;2023-03-20T15:53:29;92619.41;;;20.42;23.59
39681;BME280;26327;42.550;23.120;2023-03-20T15:56:02;92669.41;;;20.75;23.65
39681;BME280;26327;42.550;23.120;2023-03-20T15:58:28;92598.16;;;20.15;24.74
39681;BME280;26327;42.550;23.120;2023-03-20T16:00:56;92669.47;;;20.20;25.67
39681;BME280;26327;42.550;23.120;2023-03-20T16:03:23;92603.50;;;19.81;25.37
39681;BME280;26327;42.550;23.120;2023-03-20T16:05:52;92595.47;;;19.55;25.59
39681;BME280;26327;42.550;23.120;2023-03-20T16:10:48;92691.81;;;18.42;31.58
39681;BME280;26327;42.550;23.120;2023-03-20T16:13:14;92618.13;;;17.55;33.49
39681;BME280;26327;42.550;23.120;2023-03-20T16:15:43;92703.50;;;17.76;33.47
39681;BME280;26327;42.550;23.120;2023-03-20T16:18:13;92691.50;;;17.91;33.26
39681;BME280;26327;42.550;23.120;2023-03-20T16:21:04;92646.81;;;18.03;33.25
39681;BME280;26327;42.550;23.120;2023-03-20T16:25:59;92633.03;;;16.41;33.86
39681;BME280;26327;42.550;23.120;2023-03-20T16:28:26;92644.00;;;17.40;32.92
39681;BME280;26327;42.550;23.120;2023-03-20T16:30:55;92629.97;;;17.46;32.50
39681;BME280;26327;42.550;23.120;2023-03-20T16:33:29;92706.25;;;17.81;33.56
39681;BME280;26327;42.550;23.120;2023-03-20T16:35:54;92617.84;;;17.33;33.46
39681;BME280;26327;42.550;23.120;2023-03-20T16:38:26;92707.88;;;17.10;34.96
39681;BME280;26327;42.550;23.120;2023-03-20T16:41:16;92637.13;;;15.82;36.57
39681;BME280;26327;42.550;23.120;2023-03-20T16:43:49;92710.81;;;16.29;37.53
39681;BME280;26327;42.550;23.120;2023-03-20T16:46:22;92700.78;;;15.58;39.95
39681;BME280;26327;42.550;23.120;2023-03-20T16:48:50;92726.38;;;15.24;41.11
39681;BME280;26327;42.550;23.120;2023-03-20T16:51:21;92732.56;;;14.98;41.30
39681;BME280;26327;42.550;23.120;2023-03-20T16:53:50;92722.13;;;14.92;41.24
39681;BME280;26327;42.550;23.120;2023-03-20T16:56:26;92706.19;;;15.31;40.24
39681;BME280;26327;42.550;23.120;2023-03-20T16:58:52;92723.72;;;15.56;39.62
39681;BME280;26327;42.550;23.120;2023-03-20T17:01:20;92642.50;;;14.43;40.82
39681;BME280;26327;42.550;23.120;2023-03-20T17:03:52;92718.91;;;14.38;42.10
39681;BME280;26327;42.550;23.120;2023-03-20T17:08:51;92662.22;;;13.35;44.83
39681;BME280;26327;42.550;23.120;2023-03-20T17:11:38;92604.59;;;12.90;45.60
39681;BME280;26327;42.550;23.120;2023-03-20T17:14:04;92651.53;;;13.10;45.74
39681;BME280;26327;42.550;23.120;2023-03-20T17:16:30;92687.72;;;13.33;45.80
39681;BME280;26327;42.550;23.120;2023-03-20T17:19:03;92653.97;;;13.51;45.03
39681;BME280;26327;42.550;23.120;2023-03-20T17:21:29;92661.16;;;13.03;45.17
39681;BME280;26327;42.550;23.120;2023-03-20T17:23:56;92717.00;;;13.28;45.23
39681;BME280;26327;42.550;23.120;2023-03-20T17:26:22;92724.38;;;13.11;45.38
39681;BME280;26327;42.550;23.120;2023-03-20T17:28:48;92727.53;;;12.93;45.74
39681;BME280;26327;42.550;23.120;2023-03-20T17:31:15;92729.53;;;12.85;46.58
39681;BME280;26327;42.550;23.120;2023-03-20T17:33:41;92752.59;;;12.81;47.37
39681;BME280;26327;42.550;23.120;2023-03-20T17:36:14;92733.84;;;12.58;47.08
39681;BME280;26327;42.550;23.120;2023-03-20T17:38:41;92671.06;;;11.98;47.50
39681;BME280;26327;42.550;23.120;2023-03-20T17:41:14;92753.84;;;12.44;48.41
39681;BME280;26327;42.550;23.120;2023-03-20T17:43:40;92651.00;;;11.92;48.74
39681;BME280;26327;42.550;23.120;2023-03-20T17:46:18;92752.81;;;12.39;49.51
39681;BME280;26327;42.550;23.120;2023-03-20T17:48:48;92764.47;;;12.49;48.74
39681;BME280;26327;42.550;23.120;2023-03-20T17:51:14;92759.50;;;12.20;49.71
39681;BME280;26327;42.550;23.120;2023-03-20T17:53:40;92760.63;;;12.04;49.80
39681;BME280;26327;42.550;23.120;2023-03-20T17:56:15;92757.06;;;12.12;49.25
39681;BME280;26327;42.550;23.120;2023-03-20T17:58:41;92748.78;;;12.02;49.49
39681;BME280;26327;42.550;23.120;2023-03-20T18:01:10;92755.13;;;12.27;49.44
39681;BME280;26327;42.550;23.120;2023-03-20T18:03:36;92751.28;;;12.57;48.77
39681;BME280;26327;42.550;23.120;2023-03-20T18:06:02;92754.69;;;12.17;49.25
39681;BME280;26327;42.550;23.120;2023-03-20T18:08:28;92651.91;;;11.22;51.05
39681;BME280;26327;42.550;23.120;2023-03-20T18:10:54;92753.34;;;11.72;51.57
39681;BME280;26327;42.550;23.120;2023-03-20T18:13:21;92656.16;;;11.02;50.98
39681;BME280;26327;42.550;23.120;2023-03-20T18:15:51;92663.59;;;10.84;51.49
39681;BME280;26327;42.550;23.120;2023-03-20T18:18:18;92730.78;;;11.29;51.57
39681;BME280;26327;42.550;23.120;2023-03-20T18:20:44;92691.56;;;11.03;51.89
39681;BME280;26327;42.550;23.120;2023-03-20T18:23:11;92720.22;;;11.10;52.74
39681;BME280;26327;42.550;23.120;2023-03-20T18:25:37;92748.72;;;11.39;53.12
39681;BME280;26327;42.550;23.120;2023-03-20T18:28:05;92608.47;;;10.46;52.82
39681;BME280;26327;42.550;23.120;2023-03-20T18:30:39;92747.19;;;11.30;53.14
39681;BME280;26327;42.550;23.120;2023-03-20T18:33:06;92686.13;;;10.98;53.59
39681;BME280;26327;42.550;23.120;2023-03-20T18:35:32;92744.41;;;11.31;53.59
39681;BME280;26327;42.550;23.120;2023-03-20T18:37:58;92764.75;;;11.43;53.82
39681;BME280;26327;42.550;23.120;2023-03-20T18:42:51;92646.50;;;11.45;53.18
39681;BME280;26327;42.550;23.120;2023-03-20T18:45:18;92755.84;;;12.49;51.19
39681;BME280;26327;42.550;23.120;2023-03-20T18:47:44;92708.66;;;11.89;51.84
39681;BME280;26327;42.550;23.120;2023-03-20T18:50:34;92751.19;;;12.38;51.14
39681;BME280;26327;42.550;23.120;2023-03-20T18:53:01;92762.28;;;12.53;51.32
39681;BME280;26327;42.550;23.120;2023-03-20T18:55:28;92748.31;;;12.74;50.85
39681;BME280;26327;42.550;23.120;2023-03-20T18:57:54;92618.06;;;12.26;48.70
39681;BME280;26327;42.550;23.120;2023-03-20T19:00:27;92763.53;;;13.18;48.46
39681;BME280;26327;42.550;23.120;2023-03-20T19:02:54;92762.13;;;12.61;51.09
39681;BME280;26327;42.550;23.120;2023-03-20T19:05:24;92771.22;;;12.78;49.84
39681;BME280;26327;42.550;23.120;2023-03-20T19:07:50;92767.94;;;13.17;47.99
39681;BME280;26327;42.550;23.120;2023-03-20T19:12:53;92672.28;;;12.03;48.61
39681;BME280;26327;42.550;23.120;2023-03-20T19:15:20;92614.59;;;11.71;48.64
39681;BME280;26327;42.550;23.120;2023-03-20T19:17:46;92763.50;;;12.57;48.53
39681;BME280;26327;42.550;23.120;2023-03-20T19:20:40;92772.16;;;12.64;48.82
39681;BME280;26327;42.550;23.120;2023-03-20T19:23:11;92706.91;;;12.38;48.35
39681;BME280;26327;42.550;23.120;2023-03-20T19:25:37;92777.06;;;12.87;47.99
39681;BME280;26327;42.550;23.120;2023-03-20T19:28:04;92627.22;;;12.09;46.96
39681;BME280;26327;42.550;23.120;2023-03-20T19:30:38;92783.94;;;13.01;46.81
39681;BME280;26327;42.550;23.120;2023-03-20T19:33:05;92783.56;;;13.11;46.92
39681;BME280;26327;42.550;23.120;2023-03-20T19:35:33;92732.41;;;12.49;47.83
39681;BME280;26327;42.550;23.120;2023-03-20T19:37:59;92774.06;;;12.83;48.10
39681;BME280;26327;42.550;23.120;2023-03-20T19:40:32;92740.97;;;11.46;49.88
39681;BME280;26327;42.550;23.120;2023-03-20T19:42:59;92763.81;;;12.00;50.22
39681;BME280;26327;42.550;23.120;2023-03-20T19:45:30;92782.75;;;12.21;49.55
39681;BME280;26327;42.550;23.120;2023-03-20T19:47:56;92775.19;;;12.68;47.74
39681;BME280;26327;42.550;23.120;2023-03-20T19:50:35;92778.59;;;12.68;47.71
39681;BME280;26327;42.550;23.120;2023-03-20T19:53:03;92680.53;;;12.13;47.09
39681;BME280;26327;42.550;23.120;2023-03-20T19:55:29;92771.38;;;12.70;47.97
39681;BME280;26327;42.550;23.120;2023-03-20T19:57:55;92769.78;;;11.93;48.59
39681;BME280;26327;42.550;23.120;2023-03-20T20:00:23;92769.75;;;11.23;51.76
39681;BME280;26327;42.550;23.120;2023-03-20T20:02:49;92715.91;;;11.73;50.32
39681;BME280;26327;42.550;23.120;2023-03-20T20:05:22;92704.22;;;11.83;49.16
39681;BME280;26327;42.550;23.120;2023-03-20T20:07:47;92712.72;;;11.98;49.35
39681;BME280;26327;42.550;23.120;2023-03-20T20:10:14;92712.66;;;10.72;52.41
39681;BME280;26327;42.550;23.120;2023-03-20T20:12:40;92778.34;;;10.66;54.76
39681;BME280;26327;42.550;23.120;2023-03-20T20:15:09;92771.66;;;10.57;55.83
39681;BME280;26327;42.550;23.120;2023-03-20T20:17:35;92673.53;;;10.80;53.13
39681;BME280;26327;42.550;23.120;2023-03-20T20:20:01;92774.50;;;11.62;51.80
39681;BME280;26327;42.550;23.120;2023-03-20T20:22:26;92777.16;;;11.90;50.20
39681;BME280;26327;42.550;23.120;2023-03-20T20:24:52;92768.16;;;11.92;49.25
39681;BME280;26327;42.550;23.120;2023-03-20T20:27:18;92693.94;;;11.26;50.09
39681;BME280;26327;42.550;23.120;2023-03-20T20:29:48;92776.00;;;11.07;52.15
39681;BME280;26327;42.550;23.120;2023-03-20T20:32:16;92729.38;;;10.19;55.67
39681;BME280;26327;42.550;23.120;2023-03-20T20:34:41;92778.19;;;10.08;56.77
39681;BME280;26327;42.550;23.120;2023-03-20T20:37:09;92762.66;;;9.86;56.98
39681;BME280;26327;42.550;23.120;2023-03-20T20:39:35;92777.44;;;9.85;57.13
39681;BME280;26327;42.550;23.120;2023-03-20T20:42:00;92683.38;;;9.39;57.80
39681;BME280;26327;42.550;23.120;2023-03-20T20:44:26;92694.22;;;9.57;57.65
39681;BME280;26327;42.550;23.120;2023-03-20T20:46:51;92775.06;;;10.13;57.63
39681;BME280;26327;42.550;23.120;2023-03-20T20:49:17;92758.47;;;9.70;58.35
39681;BME280;26327;42.550;23.120;2023-03-20T20:51:42;92771.16;;;9.79;57.88
39681;BME280;26327;42.550;23.120;2023-03-20T20:54:08;92775.22;;;9.97;58.03
39681;BME280;26327;42.550;23.120;2023-03-20T20:56:33;92695.03;;;9.72;57.29
39681;BME280;26327;42.550;23.120;2023-03-20T20:58:59;92777.63;;;11.08;52.46
39681;BME280;26327;42.550;23.120;2023-03-20T21:01:24;92773.41;;;11.28;50.54
39681;BME280;26327;42.550;23.120;2023-03-20T21:03:50;92778.56;;;11.43;48.61
39681;BME280;26327;42.550;23.120;2023-03-20T21:06:17;92706.09;;;11.19;47.93
39681;BME280;26327;42.550;23.120;2023-03-20T21:08:42;92712.78;;;10.64;50.34
39681;BME280;26327;42.550;23.120;2023-03-20T21:11:11;92622.00;;;9.90;52.12
39681;BME280;26327;42.550;23.120;2023-03-20T21:13:37;92773.84;;;11.11;50.10
39681;BME280;26327;42.550;23.120;2023-03-20T21:16:02;92705.22;;;10.48;50.63
39681;BME280;26327;42.550;23.120;2023-03-20T21:18:28;92774.44;;;10.55;52.45
39681;BME280;26327;42.550;23.120;2023-03-20T21:23:30;92692.66;;;10.36;54.25
39681;BME280;26327;42.550;23.120;2023-03-20T21:25:55;92731.63;;;11.09;52.23
39681;BME280;26327;42.550;23.120;2023-03-20T21:28:21;92760.72;;;10.61;53.33
39681;BME280;26327;42.550;23.120;2023-03-20T21:30:46;92595.84;;;9.41;54.21
39681;BME280;26327;42.550;23.120;2023-03-20T21:33:11;92754.19;;;10.06;54.74
39681;BME280;26327;42.550;23.120;2023-03-20T21:35:37;92741.66;;;9.95;55.32
39681;BME280;26327;42.550;23.120;2023-03-20T21:38:04;92747.19;;;9.92;56.37
39681;BME280;26327;42.550;23.120;2023-03-20T21:40:29;92696.38;;;9.54;56.99
39681;BME280;26327;42.550;23.120;2023-03-20T21:42:55;92742.34;;;9.74;56.19
39681;BME280;26327;42.550;23.120;2023-03-20T21:45:22;92762.41;;;9.81;57.14
39681;BME280;26327;42.550;23.120;2023-03-20T21:47:47;92757.13;;;9.89;56.38
39681;BME280;26327;42.550;23.120;2023-03-20T21:50:12;92764.53;;;9.77;59.40
39681;BME280;26327;42.550;23.120;2023-03-20T21:52:38;92661.50;;;9.04;60.47
39681;BME280;26327;42.550;23.120;2023-03-20T21:55:04;92691.38;;;9.14;60.30
39681;BME280;26327;42.550;23.120;2023-03-20T21:57:30;92698.63;;;9.19;60.14
39681;BME280;26327;42.550;23.120;2023-03-20T21:59:55;92738.09;;;9.44;59.96
39681;BME280;26327;42.550;23.120;2023-03-20T22:02:21;92689.06;;;9.20;59.70
39681;BME280;26327;42.550;23.120;2023-03-20T22:04:47;92665.28;;;9.31;58.38
39681;BME280;26327;42.550;23.120;2023-03-20T22:07:14;92759.00;;;9.80;58.73
39681;BME280;26327;42.550;23.120;2023-03-20T22:09:40;92757.38;;;9.79;59.20
39681;BME280;26327;42.550;23.120;2023-03-20T22:12:06;92761.59;;;9.80;59.55
39681;BME280;26327;42.550;23.120;2023-03-20T22:14:31;92741.41;;;10.05;58.67
39681;BME280;26327;42.550;23.120;2023-03-20T22:16:57;92677.16;;;9.63;58.68
39681;BME280;26327;42.550;23.120;2023-03-20T22:19:22;92669.38;;;9.63;58.65
39681;BME280;26327;42.550;23.120;2023-03-20T22:21:47;92718.38;;;10.46;58.74
39681;BME280;26327;42.550;23.120;2023-03-20T22:24:13;92735.66;;;10.54;58.54
39681;BME280;26327;42.550;23.120;2023-03-20T22:26:38;92742.09;;;10.14;57.90
39681;BME280;26327;42.550;23.120;2023-03-20T22:29:04;92739.34;;;10.00;57.29
